createdAt,value
2017-08-30T00:00:41.898Z,34.25
2017-08-30T00:03:10.078Z,33.75
2017-08-30T00:05:38.226Z,33.33
2017-08-30T00:08:06.373Z,32.85
2017-08-30T00:10:34.578Z,32.40
2017-08-30T00:13:02.744Z,34.70
2017-08-30T00:15:30.917Z,32.72
2017-08-30T00:17:59.128Z,32.80
2017-08-30T00:20:27.282Z,32.35
2017-08-30T00:22:55.443Z,31.20
2017-08-30T00:25:41.410Z,33.13
2017-08-30T00:28:09.576Z,67.15
2017-08-30T00:30:37.749Z,45.40
2017-08-30T00:33:05.926Z,43.55
2017-08-30T00:35:34.099Z,36.67
2017-08-30T00:38:02.273Z,33.00
2017-08-30T00:40:30.485Z,34.47
2017-08-30T00:42:58.658Z,31.15
2017-08-30T00:45:26.831Z,33.08
2017-08-30T00:47:55.805Z,32.00
2017-08-30T00:50:23.969Z,31.65
2017-08-30T00:52:52.114Z,30.62
2017-08-30T00:55:20.314Z,32.05
2017-08-30T00:57:48.462Z,32.35
2017-08-30T01:00:16.624Z,33.70
2017-08-30T01:02:44.815Z,32.75
2017-08-30T01:05:12.986Z,31.23
2017-08-30T01:07:41.139Z,31.50
2017-08-30T01:10:09.347Z,33.33
2017-08-30T01:12:37.496Z,33.35
2017-08-30T01:15:05.654Z,33.70
2017-08-30T01:17:33.884Z,33.13
2017-08-30T01:20:02.053Z,34.58
2017-08-30T01:22:30.233Z,32.72
2017-08-30T01:24:58.410Z,36.33
2017-08-30T01:27:26.584Z,37.90
2017-08-30T01:29:54.747Z,34.00
2017-08-30T01:32:22.943Z,35.65
2017-08-30T01:34:51.103Z,35.55
2017-08-30T01:37:19.277Z,37.55
2017-08-30T01:39:47.451Z,37.35
2017-08-30T01:42:16.397Z,38.17
2017-08-30T01:44:44.573Z,36.58
2017-08-30T01:47:12.772Z,35.03
2017-08-30T01:49:40.948Z,36.30
2017-08-30T01:52:09.128Z,35.35
2017-08-30T01:54:37.307Z,38.00
2017-08-30T01:57:05.458Z,37.70
2017-08-30T01:59:33.610Z,36.38
2017-08-30T02:02:01.791Z,35.20
2017-08-30T02:04:29.961Z,35.60
2017-08-30T02:06:58.137Z,34.88
2017-08-30T02:09:26.333Z,36.05
2017-08-30T02:11:54.482Z,34.53
2017-08-30T02:14:22.657Z,36.95
2017-08-30T02:16:50.837Z,35.65
2017-08-30T02:19:19.751Z,36.13
2017-08-30T02:21:47.927Z,38.03
2017-08-30T02:24:16.113Z,39.17
2017-08-30T02:26:44.283Z,36.33
2017-08-30T02:29:12.430Z,38.05
2017-08-30T02:31:40.615Z,37.20
2017-08-30T02:34:08.788Z,38.92
2017-08-30T02:36:36.947Z,37.75
2017-08-30T02:39:05.904Z,37.83
2017-08-30T02:41:34.058Z,35.08
2017-08-30T02:44:02.212Z,34.90
2017-08-30T02:46:30.414Z,35.97
2017-08-30T02:48:58.589Z,36.45
2017-08-30T02:51:27.702Z,36.50
2017-08-30T02:53:55.897Z,37.25
2017-08-30T02:56:24.074Z,36.05
2017-08-30T02:58:52.249Z,37.35
2017-08-30T03:01:20.423Z,34.75
2017-08-30T03:03:48.597Z,35.15
2017-08-30T03:06:16.770Z,36.53
2017-08-30T03:08:45.979Z,37.30
2017-08-30T03:11:14.151Z,35.03
2017-08-30T03:13:42.337Z,35.40
2017-08-30T03:16:10.510Z,35.80
2017-08-30T03:18:38.680Z,35.42
2017-08-30T03:21:06.849Z,36.75
2017-08-30T03:23:35.820Z,35.53
2017-08-30T03:26:03.996Z,34.97
2017-08-30T03:28:32.165Z,34.15
2017-08-30T03:31:00.367Z,36.70
2017-08-30T03:33:29.301Z,38.58
2017-08-30T03:35:57.474Z,36.88
2017-08-30T03:38:25.650Z,36.00
2017-08-30T03:40:53.798Z,37.28
2017-08-30T03:43:21.949Z,36.80
2017-08-30T03:45:50.158Z,35.80
2017-08-30T03:48:18.313Z,35.25
2017-08-30T03:50:46.467Z,36.42
2017-08-30T03:53:14.651Z,36.80
2017-08-30T03:55:42.827Z,34.25
2017-08-30T03:58:11.006Z,37.13
2017-08-30T04:00:39.183Z,36.20
2017-08-30T04:03:07.338Z,36.80
2017-08-30T04:05:35.487Z,36.72
2017-08-30T04:08:03.668Z,39.30
2017-08-30T04:10:31.828Z,38.42
2017-08-30T04:12:59.982Z,42.28
2017-08-30T04:15:28.159Z,40.80
2017-08-30T04:17:56.327Z,40.47
2017-08-30T04:20:24.509Z,41.25
2017-08-30T04:22:52.714Z,43.15
2017-08-30T04:25:20.888Z,43.00
2017-08-30T04:27:49.057Z,45.03
2017-08-30T04:30:17.243Z,47.80
2017-08-30T04:32:45.412Z,48.03
2017-08-30T04:35:13.585Z,46.83
2017-08-30T04:37:41.776Z,45.53
2017-08-30T04:40:09.926Z,47.97
2017-08-30T04:42:38.860Z,46.78
2017-08-30T04:45:08.310Z,47.03
2017-08-30T04:47:36.513Z,45.72
2017-08-30T04:50:04.667Z,49.92
2017-08-30T04:52:32.873Z,51.03
2017-08-30T04:55:01.022Z,46.85
2017-08-30T04:57:29.189Z,51.90
2017-08-30T04:59:58.145Z,50.25
2017-08-30T05:02:26.321Z,49.47
2017-08-30T05:04:54.493Z,49.83
2017-08-30T05:07:22.881Z,48.30
2017-08-30T05:09:51.035Z,50.50
2017-08-30T05:12:19.205Z,50.90
2017-08-30T05:14:47.401Z,50.15
2017-08-30T05:17:15.555Z,51.20
2017-08-30T05:19:43.708Z,51.67
2017-08-30T05:22:11.908Z,51.60
2017-08-30T05:24:40.081Z,50.97
2017-08-30T05:27:08.254Z,53.13
2017-08-30T05:29:36.455Z,53.40
2017-08-30T05:32:04.624Z,52.90
2017-08-30T05:34:32.792Z,54.03
2017-08-30T05:37:00.970Z,54.72
2017-08-30T05:39:29.145Z,54.60
2017-08-30T05:41:57.329Z,52.38
2017-08-30T05:44:25.804Z,50.15
2017-08-30T05:46:53.965Z,49.83
2017-08-30T05:49:22.122Z,50.15
2017-08-30T05:51:50.303Z,50.35
2017-08-30T05:54:18.473Z,48.92
2017-08-30T05:56:46.653Z,48.40
2017-08-30T05:59:14.835Z,45.12
2017-08-30T06:01:43.324Z,43.87
2017-08-30T06:04:11.495Z,44.35
2017-08-30T06:06:39.678Z,41.22
2017-08-30T06:09:07.852Z,39.85
2017-08-30T06:11:36.027Z,39.42
2017-08-30T06:14:04.220Z,38.90
2017-08-30T06:16:32.397Z,35.58
2017-08-30T06:19:00.550Z,35.28
2017-08-30T06:21:28.744Z,36.40
2017-08-30T06:23:56.918Z,35.28
2017-08-30T06:26:25.086Z,35.63
2017-08-30T06:28:53.294Z,35.22
2017-08-30T06:31:21.448Z,32.58
2017-08-30T06:33:49.617Z,31.37
2017-08-30T06:36:17.821Z,30.52
2017-08-30T06:38:45.979Z,30.23
2017-08-30T06:41:14.136Z,30.90
2017-08-30T06:43:42.323Z,29.42
2017-08-30T06:46:10.495Z,28.25
2017-08-30T06:48:38.652Z,28.80
2017-08-30T06:51:06.865Z,28.85
2017-08-30T06:53:35.811Z,28.17
2017-08-30T06:56:03.981Z,26.08
2017-08-30T06:58:32.177Z,27.92
2017-08-30T07:01:00.330Z,27.98
2017-08-30T07:03:28.510Z,28.62
2017-08-30T07:05:57.619Z,27.85
2017-08-30T07:08:25.782Z,27.10
2017-08-30T07:10:53.938Z,26.27
2017-08-30T07:13:22.201Z,24.23
2017-08-30T07:15:50.374Z,27.33
2017-08-30T07:18:18.546Z,24.90
2017-08-30T07:20:46.737Z,23.35
2017-08-30T07:23:14.910Z,24.48
2017-08-30T07:25:43.063Z,24.92
2017-08-30T07:28:11.275Z,23.00
2017-08-30T07:30:39.436Z,24.65
2017-08-30T07:33:07.608Z,24.10
2017-08-30T07:35:36.537Z,26.08
2017-08-30T07:38:04.713Z,23.42
2017-08-30T07:40:32.889Z,24.08
2017-08-30T07:43:01.133Z,22.62
2017-08-30T07:45:29.290Z,22.92
2017-08-30T07:48:01.649Z,23.02
2017-08-30T07:50:31.749Z,22.75
2017-08-30T07:53:08.046Z,21.92
2017-08-30T07:55:37.206Z,20.80
2017-08-30T07:58:05.365Z,21.62
2017-08-30T08:00:33.524Z,21.23
2017-08-30T08:03:01.736Z,20.80
2017-08-30T08:05:43.813Z,20.55
2017-08-30T08:08:12.038Z,20.17
2017-08-30T08:10:40.198Z,20.92
2017-08-30T08:13:08.359Z,19.53
2017-08-30T08:15:36.558Z,18.57
2017-08-30T08:18:04.725Z,18.67
2017-08-30T08:20:32.900Z,18.50
2017-08-30T08:23:05.959Z,17.57
2017-08-30T08:25:34.245Z,16.17
2017-08-30T08:28:04.428Z,16.87
2017-08-30T08:30:32.623Z,16.53
2017-08-30T08:33:00.800Z,16.27
2017-08-30T08:35:28.993Z,15.33
2017-08-30T08:37:58.251Z,15.33
2017-08-30T08:40:26.677Z,15.10
2017-08-30T08:42:54.853Z,15.20
2017-08-30T08:45:23.054Z,16.30
2017-08-30T08:47:51.226Z,15.53
2017-08-30T08:50:19.471Z,15.33
2017-08-30T21:24:04.694Z,44.10
2017-08-30T21:26:32.869Z,42.60
2017-08-30T21:29:01.015Z,42.62
2017-08-30T21:31:29.218Z,43.95
2017-08-30T21:33:57.387Z,42.92
2017-08-30T21:36:25.691Z,45.95
2017-08-30T21:38:53.893Z,45.47
2017-08-30T21:41:22.053Z,48.28
2017-08-30T21:43:50.208Z,49.45
2017-08-30T21:46:19.168Z,49.00
2017-08-30T21:48:47.823Z,48.60
2017-08-30T21:51:16.459Z,47.28
2017-08-30T21:53:44.706Z,48.90
2017-08-30T21:56:12.888Z,46.85
2017-08-30T21:58:41.042Z,52.30
2017-08-30T22:01:09.237Z,49.10
2017-08-30T22:03:37.410Z,49.13
2017-08-30T22:06:05.583Z,48.72
2017-08-30T22:08:33.771Z,46.53
2017-08-30T22:11:01.924Z,49.45
2017-08-30T22:13:30.073Z,52.00
2017-08-30T22:15:58.256Z,51.05
2017-08-30T22:18:26.403Z,49.30
2017-08-30T22:20:54.550Z,52.20
2017-08-30T22:23:22.729Z,51.92
2017-08-30T22:25:50.881Z,52.20
2017-08-30T22:28:19.035Z,51.47
2017-08-30T22:30:47.211Z,54.05
2017-08-30T22:33:15.382Z,53.80
2017-08-30T22:35:43.554Z,52.20
2017-08-30T22:38:11.731Z,51.95
2017-08-30T22:40:39.878Z,53.75
2017-08-30T22:43:08.031Z,59.05
2017-08-30T22:45:36.210Z,52.62
2017-08-30T22:48:05.169Z,52.08
2017-08-30T22:50:33.340Z,53.20
2017-08-30T22:53:01.523Z,56.40
2017-08-30T22:55:29.683Z,56.20
2017-08-30T22:57:57.836Z,58.25
2017-08-30T23:00:26.039Z,55.60
2017-08-30T23:02:54.212Z,61.28
2017-08-30T23:05:22.681Z,55.20
2017-08-30T23:07:50.886Z,57.47
2017-08-30T23:10:19.029Z,55.97
2017-08-30T23:12:47.179Z,58.05
2017-08-30T23:15:15.373Z,55.35
2017-08-30T23:17:43.524Z,41.10
2017-08-30T23:20:11.671Z,42.90
2017-08-30T23:22:40.617Z,45.50
2017-08-30T23:25:08.785Z,40.15
2017-08-30T23:27:36.935Z,41.80
2017-08-30T23:30:05.111Z,40.95
2017-08-30T23:32:33.282Z,43.87
2017-08-30T23:35:01.430Z,42.30
2017-08-30T23:37:29.971Z,43.17
2017-08-30T23:39:58.118Z,38.65
2017-08-30T23:42:26.269Z,35.47
2017-08-30T23:44:54.480Z,35.80
2017-08-30T23:47:22.636Z,29.33
2017-08-30T23:49:50.792Z,32.88
2017-08-30T23:52:18.975Z,27.17
2017-08-30T23:54:47.910Z,27.95
2017-08-30T23:57:16.076Z,28.65
2017-08-30T23:59:44.273Z,28.75
